Time;durP1;ratioP1;P1;durP2;ratioP2;P2;SDS_P1;SDS_P2;PMS_P1;PMS_P2;Temp;Humidity;BMP_temperature;BMP_pressure;BME280_temperature;BME280_humidity;BME280_pressure;Samples;Min_cycle;Max_cycle;Signal;HPM_P1;HPM_P2
2023/02/22 00:00:18;;;;;;;22.53;11.03;;;8.30;99.90;;;;;;5012979;28;20580;-83
2023/02/22 00:03:06;;;;;;;24.67;13.27;;;8.20;99.90;;;;;;4983220;28;20445;-87
2023/02/22 00:05:32;;;;;;;26.10;11.80;;;8.20;99.90;;;;;;5005512;28;20458;-84
2023/02/22 00:07:59;;;;;;;25.60;13.00;;;8.20;99.90;;;;;;5011229;28;20424;-84
2023/02/22 00:10:25;;;;;;;24.67;11.47;;;8.20;99.90;;;;;;5012872;28;20184;-90
2023/02/22 00:12:52;;;;;;;26.07;11.10;;;8.20;99.90;;;;;;5012560;28;20897;-84
2023/02/22 00:15:26;;;;;;;24.40;11.87;;;8.20;99.90;;;;;;5012351;28;20575;-88
2023/02/22 00:17:52;;;;;;;21.63;9.80;;;8.20;99.90;;;;;;5012546;28;20473;-84
2023/02/22 00:20:18;;;;;;;27.30;12.30;;;8.20;99.90;;;;;;5012473;28;20901;-84
2023/02/22 00:22:45;;;;;;;17.63;9.07;;;8.20;99.90;;;;;;5012103;28;20846;-85
2023/02/22 00:25:14;;;;;;;19.60;8.57;;;8.20;99.90;;;;;;5011980;28;20432;-86
2023/02/22 00:27:39;;;;;;;19.73;9.67;;;8.20;99.90;;;;;;5012264;28;20422;-88
2023/02/22 00:30:06;;;;;;;22.03;11.23;;;8.30;99.90;;;;;;5010946;28;21159;-87
2023/02/22 00:32:32;;;;;;;25.10;10.63;;;8.20;99.90;;;;;;5012247;28;20422;-85
2023/02/22 00:34:57;;;;;;;19.83;9.27;;;8.20;99.90;;;;;;5012310;28;20497;-83
2023/02/22 00:37:23;;;;;;;19.60;10.93;;;8.20;99.90;;;;;;5011690;28;20207;-84
2023/02/22 00:39:50;;;;;;;19.63;10.33;;;8.20;99.90;;;;;;5010609;28;20211;-84
2023/02/22 00:42:17;;;;;;;18.77;9.90;;;8.10;99.90;;;;;;5010612;28;20214;-84
2023/02/22 00:44:43;;;;;;;20.83;8.60;;;8.20;99.90;;;;;;5011930;28;20426;-84
2023/02/22 00:47:09;;;;;;;18.53;8.90;;;8.20;99.90;;;;;;5011934;28;20921;-84
2023/02/22 00:49:35;;;;;;;19.20;9.83;;;8.10;99.90;;;;;;5012025;28;20909;-84
2023/02/22 00:52:01;;;;;;;21.50;11.30;;;8.20;99.90;;;;;;4993823;28;20996;-84
2023/02/22 00:54:26;;;;;;;27.27;12.03;;;8.10;99.90;;;;;;5011886;28;20508;-84
2023/02/22 00:56:52;;;;;;;20.77;10.00;;;8.20;99.90;;;;;;5010751;28;20276;-84
2023/02/22 00:59:17;;;;;;;24.30;10.10;;;8.10;99.90;;;;;;5012007;28;20620;-83
2023/02/22 01:01:43;;;;;;;19.47;9.10;;;8.10;99.90;;;;;;5014248;28;20243;-83
2023/02/22 01:04:08;;;;;;;22.23;9.43;;;8.10;99.90;;;;;;5015811;28;20204;-84
2023/02/22 01:06:35;;;;;;;14.77;7.40;;;8.00;99.90;;;;;;5015620;28;20197;-85
2023/02/22 01:09:03;;;;;;;17.93;7.87;;;8.00;99.90;;;;;;5016044;28;20851;-84
2023/02/22 01:11:29;;;;;;;18.40;7.97;;;8.00;99.90;;;;;;5014601;28;20422;-85
2023/02/22 01:13:56;;;;;;;18.33;8.50;;;8.00;99.90;;;;;;5016275;28;20441;-85
2023/02/22 01:16:22;;;;;;;18.63;8.13;;;7.90;99.90;;;;;;5016207;28;20623;-88
2023/02/22 01:18:47;;;;;;;17.17;7.53;;;7.90;99.90;;;;;;5015973;28;20519;-89
2023/02/22 01:21:33;;;;;;;16.47;7.23;;;7.90;99.90;;;;;;5015729;28;20192;-84
2023/02/22 01:23:58;;;;;;;14.57;6.60;;;7.90;99.90;;;;;;5015633;28;20189;-87
2023/02/22 01:26:24;;;;;;;18.80;7.63;;;8.00;99.90;;;;;;5014585;28;20475;-87
2023/02/22 01:28:49;;;;;;;10.80;5.27;;;8.00;99.90;;;;;;5016182;28;20179;-85
2023/02/22 01:31:15;;;;;;;10.43;4.93;;;8.00;99.90;;;;;;5015720;28;20175;-88
2023/02/22 01:33:40;;;;;;;13.97;7.03;;;8.00;99.90;;;;;;5015831;28;20198;-87
2023/02/22 01:36:10;;;;;;;14.93;6.80;;;7.90;99.90;;;;;;5015111;28;20583;-86
2023/02/22 01:38:36;;;;;;;15.97;6.63;;;8.00;99.90;;;;;;5015418;28;20663;-85
2023/02/22 01:41:04;;;;;;;15.67;7.13;;;8.00;99.90;;;;;;5015456;28;20415;-85
2023/02/22 01:43:31;;;;;;;11.67;7.10;;;8.00;99.90;;;;;;5015362;28;20397;-84
2023/02/22 01:46:03;;;;;;;12.67;6.50;;;8.00;99.90;;;;;;5013808;28;20859;-85
2023/02/22 01:48:49;;;;;;;15.53;5.63;;;8.00;99.90;;;;;;5015251;28;20454;-85
2023/02/22 01:51:22;;;;;;;11.37;4.90;;;8.00;99.90;;;;;;5014943;28;20420;-87
2023/02/22 01:53:51;;;;;;;9.37;4.70;;;7.90;99.90;;;;;;5015419;28;20398;-86
2023/02/22 01:56:18;;;;;;;12.20;4.77;;;7.90;99.90;;;;;;5015428;28;20419;-85
2023/02/22 01:58:48;;;;;;;13.37;5.50;;;7.90;99.90;;;;;;5015126;28;20458;-85
2023/02/22 02:01:15;;;;;;;12.53;6.10;;;7.90;99.90;;;;;;5015280;28;20433;-89
2023/02/22 02:03:41;;;;;;;13.97;5.80;;;7.90;99.90;;;;;;4981898;28;20506;-85
2023/02/22 02:06:12;;;;;;;15.43;6.30;;;7.90;99.90;;;;;;5034327;28;20420;-87
2023/02/22 02:09:05;;;;;;;10.67;5.13;;;7.90;99.90;;;;;;5034556;28;20626;-85
2023/02/22 02:11:31;;;;;;;19.63;6.27;;;7.90;99.90;;;;;;5034456;28;20418;-85
2023/02/22 02:13:57;;;;;;;14.60;6.83;;;7.90;99.90;;;;;;5033271;28;20421;-85
2023/02/22 02:16:37;;;;;;;19.50;7.73;;;7.90;99.90;;;;;;5034400;28;20440;-85
2023/02/22 02:19:08;;;;;;;15.37;6.43;;;7.80;99.90;;;;;;5026501;28;20564;-87
2023/02/22 02:21:57;;;;;;;13.70;6.47;;;7.80;99.90;;;;;;5014664;28;20835;-88
2023/02/22 02:24:38;;;;;;;19.57;7.07;;;7.80;99.90;;;;;;5013696;28;20441;-84
2023/02/22 02:27:22;;;;;;;11.70;5.83;;;7.80;99.90;;;;;;5014538;28;20458;-84
2023/02/22 02:30:03;;;;;;;18.40;7.80;;;7.80;99.90;;;;;;5014536;28;20405;-85
2023/02/22 02:32:52;;;;;;;13.77;6.50;;;7.90;99.90;;;;;;5013794;28;20475;-84
2023/02/22 02:35:42;;;;;;;19.53;8.47;;;7.90;99.90;;;;;;5013926;28;20437;-84
2023/02/22 02:38:20;;;;;;;13.53;6.47;;;7.80;99.90;;;;;;5014024;28;20411;-84
2023/02/22 02:41:13;;;;;;;17.30;7.73;;;7.80;99.90;;;;;;5013951;28;20419;-85
2023/02/22 02:43:56;;;;;;;16.33;6.80;;;7.80;99.90;;;;;;5013982;28;20525;-86
2023/02/22 02:46:36;;;;;;;18.10;5.17;;;7.80;99.90;;;;;;5014022;28;20414;-84
2023/02/22 02:49:10;;;;;;;12.47;5.73;;;7.80;99.90;;;;;;5013841;28;20409;-84
2023/02/22 02:51:40;;;;;;;12.20;5.47;;;7.80;99.90;;;;;;5013570;28;20399;-84
2023/02/22 02:54:07;;;;;;;13.47;6.57;;;7.80;99.90;;;;;;5012581;28;20433;-84
2023/02/22 02:56:35;;;;;;;15.17;5.73;;;7.80;99.90;;;;;;5013702;28;20476;-84
2023/02/22 02:59:01;;;;;;;15.07;6.67;;;7.80;99.90;;;;;;5012488;28;20516;-84
2023/02/22 03:01:54;;;;;;;12.60;5.13;;;7.70;99.90;;;;;;5013739;28;20440;-84
2023/02/22 03:04:32;;;;;;;14.50;5.17;;;7.80;99.90;;;;;;5013638;28;20220;-85
2023/02/22 03:07:25;;;;;;;12.30;5.10;;;7.80;99.90;;;;;;5011970;28;20422;-84
2023/02/22 03:10:28;;;;;;;11.23;5.83;;;7.80;99.90;;;;;;5013528;28;20494;-85
2023/02/22 03:13:23;;;;;;;10.57;5.60;;;7.80;99.90;;;;;;5013375;28;20406;-85
2023/02/22 03:16:25;;;;;;;17.37;5.57;;;7.70;99.90;;;;;;5013393;28;20452;-85
2023/02/22 03:19:27;;;;;;;9.83;5.20;;;7.80;99.90;;;;;;5012964;28;20960;-87
2023/02/22 03:22:08;;;;;;;10.77;4.73;;;7.70;99.90;;;;;;5013371;28;20413;-85
2023/02/22 03:24:51;;;;;;;13.00;5.97;;;7.70;99.90;;;;;;5013126;28;20501;-86
2023/02/22 03:27:22;;;;;;;12.20;6.30;;;7.70;99.90;;;;;;5012103;28;20516;-87
2023/02/22 03:29:52;;;;;;;17.03;6.77;;;7.70;99.90;;;;;;5011789;28;20438;-85
2023/02/22 03:32:24;;;;;;;11.77;5.67;;;7.80;99.90;;;;;;5012871;28;20406;-86
2023/02/22 03:34:59;;;;;;;10.73;6.07;;;7.70;99.90;;;;;;5012437;28;20800;-86
2023/02/22 03:37:30;;;;;;;14.93;5.63;;;7.70;99.90;;;;;;5012230;28;20513;-85
2023/02/22 03:39:59;;;;;;;12.53;5.97;;;7.70;99.90;;;;;;5013349;28;20469;-85
2023/02/22 03:42:31;;;;;;;18.40;7.40;;;7.80;99.90;;;;;;5013280;28;20412;-85
2023/02/22 03:45:00;;;;;;;16.40;5.57;;;7.70;99.90;;;;;;5013801;28;20421;-83
2023/02/22 03:47:41;;;;;;;12.67;6.63;;;7.70;99.90;;;;;;5014183;28;20506;-84
2023/02/22 03:50:09;;;;;;;12.70;6.23;;;7.70;99.90;;;;;;5014009;28;20898;-81
2023/02/22 03:52:36;;;;;;;17.47;7.03;;;7.70;99.90;;;;;;5014213;28;20773;-84
2023/02/22 03:55:02;;;;;;;15.07;5.63;;;7.70;99.90;;;;;;5014169;28;20416;-79
2023/02/22 03:57:34;;;;;;;14.00;5.47;;;7.70;99.90;;;;;;5014115;28;20414;-85
2023/02/22 04:00:00;;;;;;;19.67;7.10;;;7.70;99.90;;;;;;5013808;28;20888;-80
2023/02/22 04:02:25;;;;;;;10.63;6.27;;;7.80;99.90;;;;;;5014058;28;20417;-80
2023/02/22 04:04:54;;;;;;;11.47;6.37;;;7.70;99.90;;;;;;5012325;28;20429;-80
2023/02/22 04:07:19;;;;;;;14.93;6.37;;;7.70;99.90;;;;;;5012584;28;20175;-79
2023/02/22 04:09:45;;;;;;;16.90;6.83;;;7.70;99.90;;;;;;5013971;28;20430;-80
2023/02/22 04:12:11;;;;;;;19.67;6.97;;;7.70;99.90;;;;;;5013818;28;20172;-84
2023/02/22 04:14:36;;;;;;;15.87;7.00;;;7.70;99.90;;;;;;5013730;28;20434;-80
2023/02/22 04:17:01;;;;;;;21.43;6.87;;;7.70;99.90;;;;;;5013824;28;20166;-80
2023/02/22 04:19:27;;;;;;;18.50;7.20;;;7.70;99.90;;;;;;5013640;28;20701;-79
2023/02/22 04:21:52;;;;;;;16.60;7.33;;;7.70;99.90;;;;;;5013333;28;20167;-84
2023/02/22 04:24:20;;;;;;;17.03;6.90;;;7.70;99.90;;;;;;5013642;28;20178;-84
2023/02/22 04:26:46;;;;;;;18.17;7.27;;;7.70;99.90;;;;;;5013404;28;20225;-79
2023/02/22 04:29:11;;;;;;;13.87;6.77;;;7.70;99.90;;;;;;5013596;28;20420;-80
2023/02/22 04:31:37;;;;;;;13.20;6.60;;;7.70;99.90;;;;;;5013573;28;20171;-83
2023/02/22 04:34:03;;;;;;;21.30;8.17;;;7.70;99.90;;;;;;5013161;28;20213;-84
2023/02/22 04:36:30;;;;;;;21.00;7.47;;;7.70;99.90;;;;;;5010530;28;20804;-82
2023/02/22 04:38:56;;;;;;;17.27;6.60;;;7.70;99.90;;;;;;5013000;28;20198;-85
2023/02/22 04:41:22;;;;;;;19.73;6.70;;;7.70;99.90;;;;;;5013438;28;20492;-84
2023/02/22 04:43:47;;;;;;;22.40;6.47;;;7.70;99.90;;;;;;5013321;28;20421;-84
2023/02/22 04:46:13;;;;;;;17.13;7.07;;;7.70;99.90;;;;;;5013313;28;20168;-84
2023/02/22 04:48:39;;;;;;;19.00;8.83;;;7.70;99.90;;;;;;5013353;28;20644;-79
2023/02/22 04:51:05;;;;;;;18.43;8.53;;;7.70;99.90;;;;;;5012836;28;20195;-79
2023/02/22 04:53:30;;;;;;;14.87;6.27;;;7.80;99.90;;;;;;5013219;28;20644;-83
2023/02/22 04:55:56;;;;;;;19.17;7.87;;;7.70;99.90;;;;;;5013214;28;20421;-80
2023/02/22 04:58:21;;;;;;;20.20;8.27;;;7.70;99.90;;;;;;5013120;28;20567;-82
2023/02/22 05:00:50;;;;;;;21.97;7.30;;;7.70;99.90;;;;;;5013204;28;20214;-79
2023/02/22 05:03:16;;;;;;;29.70;8.97;;;7.70;99.90;;;;;;5013087;28;20164;-85
2023/02/22 05:05:41;;;;;;;20.43;9.13;;;7.70;99.90;;;;;;5012691;28;20918;-84
2023/02/22 05:08:07;;;;;;;22.10;7.30;;;7.70;99.90;;;;;;5013121;28;20211;-83
2023/02/22 05:10:32;;;;;;;18.47;8.47;;;7.70;99.90;;;;;;5013008;28;20199;-80
2023/02/22 05:12:58;;;;;;;22.27;9.30;;;7.80;99.90;;;;;;5013080;28;20174;-84
2023/02/22 05:15:26;;;;;;;19.77;7.07;;;7.70;99.90;;;;;;5013078;28;20631;-80
2023/02/22 05:17:52;;;;;;;23.07;8.43;;;7.80;99.90;;;;;;5011691;28;20211;-80
2023/02/22 05:20:28;;;;;;;14.20;6.97;;;7.80;99.90;;;;;;5012511;28;20517;-83
2023/02/22 05:22:57;;;;;;;23.07;7.97;;;7.70;99.90;;;;;;5013005;28;20168;-79
2023/02/22 05:25:24;;;;;;;25.37;9.07;;;7.70;99.90;;;;;;5012713;28;20478;-80
2023/02/22 05:27:51;;;;;;;17.90;8.03;;;7.80;99.90;;;;;;5011563;28;20509;-79
2023/02/22 05:30:19;;;;;;;20.67;7.23;;;7.70;99.90;;;;;;5011634;28;20438;-79
2023/02/22 05:32:45;;;;;;;21.23;8.40;;;7.80;99.90;;;;;;5012854;28;20415;-80
2023/02/22 05:35:10;;;;;;;17.87;8.20;;;7.70;99.90;;;;;;5012599;28;20418;-79
2023/02/22 05:37:36;;;;;;;19.33;6.93;;;7.80;99.90;;;;;;5013010;28;20411;-81
2023/02/22 05:40:01;;;;;;;21.00;8.73;;;7.80;99.90;;;;;;5012747;28;20238;-79
2023/02/22 05:42:27;;;;;;;16.27;7.57;;;7.80;99.90;;;;;;5012877;28;20222;-79
2023/02/22 05:44:55;;;;;;;20.80;8.67;;;7.80;99.90;;;;;;5012698;28;20190;-79
2023/02/22 05:47:21;;;;;;;18.97;7.57;;;7.80;99.90;;;;;;5014258;28;20179;-83
2023/02/22 05:49:47;;;;;;;22.97;9.03;;;7.80;99.90;;;;;;5028167;28;20800;-79
2023/02/22 05:52:12;;;;;;;19.70;8.83;;;7.80;99.90;;;;;;5034952;28;20183;-86
2023/02/22 05:54:38;;;;;;;23.53;9.10;;;7.80;99.90;;;;;;5036110;28;20171;-84
2023/02/22 05:57:03;;;;;;;20.10;8.67;;;7.80;99.90;;;;;;5036112;28;20712;-85
2023/02/22 05:59:29;;;;;;;23.97;8.70;;;7.80;99.90;;;;;;5035849;28;20225;-85
2023/02/22 06:01:54;;;;;;;29.03;10.83;;;7.80;99.90;;;;;;5036125;28;20526;-85
2023/02/22 06:04:20;;;;;;;20.97;8.43;;;7.80;99.90;;;;;;5036252;28;20508;-79
2023/02/22 06:06:45;;;;;;;25.30;9.67;;;7.80;99.90;;;;;;5035939;28;20168;-83
2023/02/22 06:09:10;;;;;;;20.37;8.70;;;7.80;99.90;;;;;;5034769;28;20522;-82
2023/02/22 06:11:36;;;;;;;19.77;8.00;;;7.80;99.90;;;;;;5036111;28;20203;-84
2023/02/22 06:14:01;;;;;;;29.47;9.83;;;7.80;99.90;;;;;;5035703;28;20185;-78
2023/02/22 06:16:27;;;;;;;22.60;8.50;;;7.70;99.90;;;;;;5035967;28;20169;-83
2023/02/22 06:18:52;;;;;;;19.87;7.33;;;7.80;99.90;;;;;;5035714;28;20263;-84
2023/02/22 06:21:18;;;;;;;19.70;8.60;;;7.80;99.90;;;;;;5035523;28;20176;-83
2023/02/22 06:23:43;;;;;;;20.93;7.37;;;7.80;99.90;;;;;;5035779;28;20648;-85
2023/02/22 06:26:09;;;;;;;20.20;8.73;;;7.80;99.90;;;;;;5035564;28;20220;-81
2023/02/22 06:28:34;;;;;;;23.13;8.90;;;7.80;99.90;;;;;;5035640;28;20171;-86
2023/02/22 06:31:00;;;;;;;18.77;7.43;;;7.80;99.90;;;;;;5020088;28;20174;-82
2023/02/22 06:33:25;;;;;;;17.33;8.37;;;7.80;99.90;;;;;;5005378;28;20250;-84
2023/02/22 06:35:51;;;;;;;22.03;9.20;;;7.80;99.90;;;;;;4995629;28;20225;-83
2023/02/22 06:38:22;;;;;;;22.70;8.50;;;7.80;99.90;;;;;;4995669;28;20228;-82
2023/02/22 06:40:47;;;;;;;23.27;7.57;;;7.80;99.90;;;;;;4993482;28;20184;-84
2023/02/22 06:43:12;;;;;;;20.30;8.23;;;7.80;99.90;;;;;;4994946;28;20419;-84
2023/02/22 06:45:38;;;;;;;15.77;8.20;;;7.80;99.90;;;;;;4995953;28;20175;-85
2023/02/22 06:48:03;;;;;;;15.97;5.77;;;7.80;99.90;;;;;;4995943;28;20622;-84
2023/02/22 06:50:30;;;;;;;19.63;7.20;;;7.80;99.90;;;;;;4995823;28;20171;-85
2023/02/22 06:52:56;;;;;;;24.37;8.10;;;7.90;99.90;;;;;;4995909;28;20180;-79
2023/02/22 06:55:24;;;;;;;23.43;7.80;;;7.90;99.90;;;;;;4995836;28;20423;-82
2023/02/22 06:57:50;;;;;;;17.50;5.90;;;7.90;99.90;;;;;;4995504;28;20930;-80
2023/02/22 07:00:18;;;;;;;17.93;7.23;;;7.90;99.90;;;;;;4993612;28;20480;-84
2023/02/22 07:02:44;;;;;;;14.90;8.20;;;7.90;99.90;;;;;;4995592;28;20512;-79
2023/02/22 07:05:11;;;;;;;18.80;7.23;;;7.80;99.90;;;;;;4995356;28;20777;-84
2023/02/22 07:07:38;;;;;;;20.60;8.30;;;7.90;99.90;;;;;;4994280;28;20418;-83
2023/02/22 07:10:14;;;;;;;18.70;6.23;;;7.90;99.90;;;;;;4995621;28;20417;-84
2023/02/22 07:12:39;;;;;;;17.73;7.33;;;7.90;99.90;;;;;;4995362;28;20429;-84
2023/02/22 07:15:05;;;;;;;22.70;7.20;;;7.90;99.90;;;;;;4995234;28;20436;-83
2023/02/22 07:17:38;;;;;;;22.50;8.00;;;7.90;99.90;;;;;;4995344;28;20269;-83
2023/02/22 07:20:04;;;;;;;23.63;8.53;;;7.90;99.90;;;;;;4995104;28;20566;-84
2023/02/22 07:22:30;;;;;;;16.90;7.53;;;8.00;99.90;;;;;;4994195;28;20419;-83
2023/02/22 07:24:55;;;;;;;20.23;7.27;;;7.90;99.90;;;;;;4994061;28;20655;-80
2023/02/22 07:27:21;;;;;;;21.03;8.07;;;8.00;99.90;;;;;;4993614;28;20227;-79
2023/02/22 07:29:46;;;;;;;17.83;7.63;;;8.00;99.90;;;;;;4995123;28;20313;-84
2023/02/22 07:32:12;;;;;;;15.57;8.07;;;8.00;99.90;;;;;;4994981;28;20176;-84
2023/02/22 07:34:37;;;;;;;21.23;9.60;;;8.00;99.90;;;;;;4994488;28;20175;-83
2023/02/22 07:37:03;;;;;;;15.90;6.93;;;8.00;99.90;;;;;;4994844;28;20580;-83
2023/02/22 07:39:28;;;;;;;22.13;8.67;;;8.00;99.90;;;;;;4993576;28;20218;-84
2023/02/22 07:41:54;;;;;;;21.60;8.67;;;8.00;99.90;;;;;;4994755;28;20253;-84
2023/02/22 07:44:19;;;;;;;19.67;9.47;;;8.10;99.90;;;;;;4994708;28;20633;-83
2023/02/22 07:46:49;;;;;;;18.80;8.43;;;8.10;99.90;;;;;;4994701;28;20279;-80
2023/02/22 07:49:15;;;;;;;18.10;7.97;;;8.10;99.90;;;;;;4994263;28;20280;-80
2023/02/22 07:51:40;;;;;;;25.13;10.70;;;8.10;99.90;;;;;;4994513;28;20876;-80
2023/02/22 07:54:06;;;;;;;21.00;9.40;;;8.10;99.90;;;;;;4993308;28;20816;-80
2023/02/22 07:56:31;;;;;;;22.17;8.63;;;8.10;99.90;;;;;;4994452;28;20176;-83
2023/02/22 07:59:03;;;;;;;20.13;8.40;;;8.20;99.90;;;;;;4994417;28;20562;-80
2023/02/22 08:01:28;;;;;;;23.93;9.23;;;8.20;99.90;;;;;;4994279;28;20177;-83
2023/02/22 08:03:55;;;;;;;19.90;9.10;;;8.20;99.90;;;;;;4994425;28;20483;-83
2023/02/22 08:06:24;;;;;;;19.53;8.50;;;8.30;99.90;;;;;;4994038;28;20222;-83
2023/02/22 08:08:59;;;;;;;19.47;7.73;;;8.30;99.90;;;;;;4993019;28;20452;-80
2023/02/22 08:11:25;;;;;;;19.03;7.50;;;8.30;99.90;;;;;;4994122;28;20414;-82
2023/02/22 08:13:51;;;;;;;20.60;7.80;;;8.30;99.90;;;;;;4994161;28;20416;-84
2023/02/22 08:16:16;;;;;;;32.97;12.87;;;8.40;99.90;;;;;;4994161;28;20430;-86
2023/02/22 08:18:41;;;;;;;19.17;8.73;;;8.40;99.90;;;;;;4993960;28;20208;-84
2023/02/22 08:21:07;;;;;;;24.73;9.93;;;8.50;99.90;;;;;;4993738;28;20525;-83
2023/02/22 08:23:33;;;;;;;25.37;10.00;;;8.60;99.90;;;;;;4994018;28;20207;-84
2023/02/22 08:26:09;;;;;;;22.03;10.83;;;8.60;99.90;;;;;;4993790;28;20226;-84
2023/02/22 08:28:35;;;;;;;22.33;9.63;;;8.70;99.90;;;;;;4993964;28;20163;-84
2023/02/22 08:31:01;;;;;;;31.93;11.83;;;8.60;99.90;;;;;;4993946;28;20511;-84
2023/02/22 08:33:26;;;;;;;35.23;12.93;;;8.70;99.90;;;;;;4993878;28;20176;-86
2023/02/22 08:35:55;;;;;;;22.87;10.27;;;8.70;99.90;;;;;;4992260;28;20200;-82
2023/02/22 08:38:29;;;;;;;27.50;12.30;;;8.80;99.90;;;;;;4994146;28;20160;-80
2023/02/22 08:40:54;;;;;;;25.40;11.57;;;8.80;99.90;;;;;;4993996;28;20427;-80
2023/02/22 08:43:20;;;;;;;31.23;10.77;;;8.90;99.90;;;;;;4994202;28;20806;-85
2023/02/22 08:45:46;;;;;;;21.10;9.57;;;8.90;99.90;;;;;;4994042;28;20174;-83
2023/02/22 08:48:13;;;;;;;22.77;9.67;;;8.90;99.90;;;;;;4993910;28;20408;-84
2023/02/22 08:50:40;;;;;;;26.77;11.90;;;8.90;99.90;;;;;;4993765;28;20182;-84
2023/02/22 08:53:07;;;;;;;23.00;9.90;;;9.10;99.90;;;;;;4993922;28;20505;-84
2023/02/22 08:55:36;;;;;;;28.30;13.23;;;9.00;99.90;;;;;;4993790;28;20836;-85
2023/02/22 08:58:03;;;;;;;21.27;10.60;;;9.00;99.90;;;;;;4993984;28;20412;-85
2023/02/22 09:00:34;;;;;;;22.43;11.33;;;8.90;99.90;;;;;;4993866;28;20468;-85
2023/02/22 09:03:03;;;;;;;20.10;12.53;;;8.90;99.90;;;;;;4994002;28;20437;-84
2023/02/22 09:05:30;;;;;;;29.43;11.90;;;8.80;99.90;;;;;;4993461;28;20486;-80
2023/02/22 09:07:58;;;;;;;25.77;10.63;;;8.90;99.90;;;;;;4993871;28;20811;-81
2023/02/22 09:10:26;;;;;;;21.10;9.60;;;8.80;99.90;;;;;;4993670;28;20420;-84
2023/02/22 09:12:55;;;;;;;23.70;8.73;;;8.70;99.90;;;;;;4993621;28;20462;-85
2023/02/22 09:15:23;;;;;;;25.93;10.70;;;8.80;99.90;;;;;;4993705;28;20414;-80
2023/02/22 09:17:49;;;;;;;25.03;8.70;;;8.80;99.90;;;;;;4993635;28;20791;-80
2023/02/22 09:20:19;;;;;;;25.77;11.80;;;8.80;99.90;;;;;;4993238;28;20473;-79
2023/02/22 09:22:46;;;;;;;29.93;10.60;;;8.80;99.90;;;;;;4995785;28;20600;-80
2023/02/22 09:25:12;;;;;;;17.83;8.27;;;8.90;99.90;;;;;;4995946;28;20419;-82
2023/02/22 09:27:39;;;;;;;24.63;9.27;;;8.90;99.90;;;;;;4996239;28;20778;-79
2023/02/22 09:30:05;;;;;;;24.53;10.20;;;9.00;99.90;;;;;;4997416;28;20450;-83
2023/02/22 09:32:35;;;;;;;30.83;10.80;;;9.00;99.90;;;;;;4997125;28;20501;-83
2023/02/22 09:35:00;;;;;;;21.67;9.53;;;9.20;99.90;;;;;;4996892;28;20779;-85
2023/02/22 09:37:26;;;;;;;26.77;10.50;;;9.10;99.90;;;;;;4997153;28;20414;-86
2023/02/22 09:39:51;;;;;;;18.53;8.70;;;9.10;99.90;;;;;;4997101;28;20343;-83
2023/02/22 09:42:38;;;;;;;13.80;6.83;;;9.10;99.90;;;;;;4997198;28;20533;-85
2023/02/22 09:45:17;;;;;;;11.10;5.73;;;9.10;99.90;;;;;;4997367;28;20177;-86
2023/02/22 09:47:48;;;;;;;17.27;8.07;;;9.00;99.90;;;;;;4996948;28;20437;-86
2023/02/22 09:50:25;;;;;;;17.43;7.57;;;9.10;99.90;;;;;;4996486;28;20765;-85
2023/02/22 09:53:16;;;;;;;17.27;8.80;;;9.10;99.90;;;;;;4996912;28;20406;-86
2023/02/22 09:55:47;;;;;;;15.57;8.03;;;9.10;99.90;;;;;;4995656;28;20422;-84
2023/02/22 09:58:24;;;;;;;18.40;8.20;;;9.10;99.90;;;;;;4997324;28;20532;-85
2023/02/22 10:01:03;;;;;;;21.77;8.77;;;9.20;99.90;;;;;;4996738;28;20890;-86
2023/02/22 10:03:41;;;;;;;20.83;8.83;;;9.20;99.90;;;;;;4996690;28;21035;-86
2023/02/22 10:06:13;;;;;;;19.03;8.97;;;9.20;99.90;;;;;;4996254;28;20432;-84
2023/02/22 10:08:40;;;;;;;23.07;9.70;;;9.20;99.90;;;;;;5001860;28;20533;-87
2023/02/22 10:11:55;;;;;;;22.90;9.03;;;9.30;99.90;;;;;;5016033;28;20442;-81
2023/02/22 10:14:45;;;;;;;18.70;9.10;;;9.30;99.90;;;;;;4975162;28;20420;-82
2023/02/22 10:17:34;;;;;;;20.03;7.77;;;9.40;99.90;;;;;;4996474;28;20420;-87
2023/02/22 10:20:21;;;;;;;21.00;9.73;;;9.50;99.90;;;;;;4995709;28;20466;-81
2023/02/22 10:22:59;;;;;;;24.23;9.60;;;9.50;99.90;;;;;;4996195;28;20409;-85
2023/02/22 10:25:33;;;;;;;20.33;9.63;;;9.60;99.90;;;;;;4996065;28;20445;-84
2023/02/22 10:28:04;;;;;;;25.53;11.47;;;9.60;99.90;;;;;;4996214;28;20822;-85
2023/02/22 10:30:38;;;;;;;24.10;9.57;;;9.70;99.90;;;;;;4995982;28;20420;-85
2023/02/22 10:33:08;;;;;;;22.50;10.30;;;9.70;99.90;;;;;;4993963;28;20466;-82
2023/02/22 10:35:36;;;;;;;25.27;10.27;;;9.70;99.90;;;;;;4995454;28;20414;-82
2023/02/22 10:38:32;;;;;;;24.53;10.20;;;9.70;99.90;;;;;;4998294;28;20574;-81
2023/02/22 10:41:09;;;;;;;18.00;9.80;;;10.10;99.90;;;;;;5006056;28;20506;-82
2023/02/22 10:43:42;;;;;;;26.80;13.27;;;10.80;99.90;;;;;;5014896;28;20529;-85
2023/02/22 10:46:11;;;;;;;20.00;10.70;;;;;;;;;;5015223;28;20458;-85
2023/02/22 10:48:39;;;;;;;19.80;11.03;;;;;;;;;;5015075;28;20440;-81
2023/02/22 10:51:07;;;;;;;13.30;8.17;;;13.60;1.00;;;;;;5015204;28;20419;-83
2023/02/22 10:53:36;;;;;;;18.40;9.60;;;13.40;1.00;;;;;;5015220;28;20469;-84
2023/02/22 10:56:32;;;;;;;17.93;10.10;;;13.00;1.00;;;;;;5015229;28;20509;-83
2023/02/22 10:59:04;;;;;;;17.70;9.80;;;13.10;99.90;;;;;;5011965;28;20828;-85
2023/02/22 11:01:30;;;;;;;17.73;10.40;;;12.40;29.50;;;;;;5015246;28;20436;-84
2023/02/22 11:04:10;;;;;;;15.63;9.87;;;;;;;;;;5014814;28;20424;-84
2023/02/22 11:06:36;;;;;;;21.10;10.80;;;15.10;99.90;;;;;;5015157;28;20209;-85
2023/02/22 11:09:11;;;;;;;16.00;9.13;;;15.90;99.90;;;;;;5013810;28;20514;-85
2023/02/22 11:11:42;;;;;;;14.27;8.83;;;16.00;99.90;;;;;;5013691;28;20933;-84
2023/02/22 11:14:09;;;;;;;16.10;9.40;;;16.20;99.90;;;;;;5014883;28;20418;-85
2023/02/22 11:16:49;;;;;;;13.77;9.17;;;16.50;1.00;;;;;;5014799;28;20457;-84
2023/02/22 11:19:15;;;;;;;14.10;8.87;;;15.90;1.00;;;;;;5014361;28;20497;-84
2023/02/22 11:21:41;;;;;;;15.70;9.57;;;16.00;62.20;;;;;;5014761;28;20457;-85
2023/02/22 11:24:13;;;;;;;15.30;8.10;;;16.00;1.00;;;;;;5014740;28;20262;-85
2023/02/22 11:26:42;;;;;;;15.30;8.77;;;15.70;1.00;;;;;;5013111;28;20476;-85
2023/02/22 11:29:35;;;;;;;17.33;9.67;;;15.90;99.10;;;;;;5014665;28;20453;-86
2023/02/22 11:32:21;;;;;;;20.07;9.03;;;14.30;1.00;;;;;;5010411;28;20419;-85
2023/02/22 11:34:51;;;;;;;13.13;8.80;;;16.00;99.90;;;;;;5014252;28;20414;-85
2023/02/22 11:37:33;;;;;;;16.87;8.97;;;16.20;1.00;;;;;;5014487;28;20420;-84
2023/02/22 11:40:16;;;;;;;15.80;9.27;;;15.90;1.00;;;;;;5014279;28;20465;-85
2023/02/22 11:42:42;;;;;;;15.77;9.37;;;16.90;1.00;;;;;;5014437;28;20421;-84
2023/02/22 11:45:20;;;;;;;15.40;9.73;;;16.20;1.00;;;;;;5013959;28;20498;-86
2023/02/22 11:48:02;;;;;;;13.17;9.37;;;15.40;99.90;;;;;;5013091;28;20174;-85
2023/02/22 11:50:32;;;;;;;14.00;9.67;;;15.30;99.90;;;;;;5013780;28;20501;-86
2023/02/22 11:53:24;;;;;;;15.80;9.50;;;16.20;1.00;;;;;;5014216;28;20420;-85
2023/02/22 11:56:06;;;;;;;14.03;8.43;;;16.30;1.00;;;;;;5014171;28;20468;-86
2023/02/22 11:58:44;;;;;;;9.00;6.10;;;15.80;1.00;;;;;;5014104;28;20421;-84
2023/02/22 12:01:25;;;;;;;12.40;7.80;;;15.30;1.00;;;;;;5014089;28;20428;-85
2023/02/22 12:04:32;;;;;;;11.93;7.37;;;14.10;99.90;;;;;;5013781;28;20924;-85
2023/02/22 12:07:14;;;;;;;14.40;8.73;;;13.90;1.00;;;;;;4972806;28;20523;-83
2023/02/22 12:09:50;;;;;;;14.87;8.47;;;13.60;1.00;;;;;;4972859;28;20425;-85
2023/02/22 12:12:42;;;;;;;16.07;8.27;;;13.50;1.00;;;;;;4999138;28;20427;-84
2023/02/22 12:15:22;;;;;;;12.47;7.50;;;13.70;99.90;;;;;;5013881;28;20419;-85
2023/02/22 12:18:06;;;;;;;17.73;9.43;;;13.40;1.00;;;;;;5013857;28;20452;-85
2023/02/22 12:20:55;;;;;;;14.17;8.60;;;13.30;99.90;;;;;;5012086;28;20480;-85
2023/02/22 12:23:43;;;;;;;12.77;7.47;;;13.20;99.90;;;;;;5013733;28;20424;-85
2023/02/22 12:26:29;;;;;;;17.50;8.57;;;13.60;1.00;;;;;;5012189;28;20466;-85
2023/02/22 12:29:05;;;;;;;13.83;8.87;;;14.40;99.90;;;;;;5013710;28;20416;-85
2023/02/22 12:31:49;;;;;;;13.43;8.30;;;14.00;99.90;;;;;;5012331;28;20419;-86
2023/02/22 12:34:26;;;;;;;15.10;7.97;;;13.50;99.90;;;;;;5013163;28;20419;-85
2023/02/22 12:37:14;;;;;;;11.30;8.23;;;13.60;16.40;;;;;;5013652;28;20765;-84
2023/02/22 12:40:07;;;;;;;11.67;7.67;;;13.80;93.00;;;;;;5013065;28;20477;-84
2023/02/22 12:43:07;;;;;;;14.10;8.37;;;13.90;40.30;;;;;;5013438;28;20461;-85
2023/02/22 12:45:43;;;;;;;9.43;6.07;;;14.20;99.90;;;;;;5013448;28;20409;-85
2023/02/22 12:48:29;;;;;;;12.10;7.07;;;13.70;99.90;;;;;;5013391;28;20742;-84
2023/02/22 12:51:17;;;;;;;12.63;7.93;;;13.50;1.00;;;;;;5013387;28;20551;-85
2023/02/22 12:53:53;;;;;;;9.80;5.80;;;14.30;99.90;;;;;;5013265;28;20405;-87
2023/02/22 12:56:26;;;;;;;11.47;7.67;;;13.80;1.00;;;;;;5012751;28;20742;-85
2023/02/22 12:59:15;;;;;;;9.60;6.87;;;13.60;99.90;;;;;;5013235;28;20843;-85
2023/02/22 13:01:44;;;;;;;11.50;7.27;;;13.60;1.00;;;;;;5013238;28;20822;-85
2023/02/22 13:04:10;;;;;;;12.93;6.03;;;13.30;99.90;;;;;;5012766;28;20419;-84
2023/02/22 13:06:50;;;;;;;8.60;5.83;;;13.10;1.00;;;;;;5013227;28;20912;-84